Aérodrome :
LOGIN :

S'inscrire | Disclaimer

   EN    FR    IT 

 










Légende :    VFR   VFR Marginal   IFR   IFR Intensif   IFR Très Intensif
Visi : 
Plafond : 
>= 8 km
>= 3000ft
5 à 8 km
1000 à 3000 ft
1500m à 5 km
500 à 1000 ft
800 à 1500m
200 à 500 ft
< 800m
< 200 ft
Symboles :   Orages  Brouillard  Fortes neiges  Fortes précipitations  Vent > 20 kt
SIGMETs :   Divers  Orages  Givrage  Turbulence  Onde Orograph.  Cendres Volcan.







- Altitude de l'aérodrome : 128 ft


ETND - Diepholz

DERNIER METAR :
  • 270620Z 26009KT 9999 FEW013 BKN015 BKN250 14/11 Q1008 WHT WHT BECMG BLU

METARs EXPIRÉS :
  • 270602Z 27009KT 9999 FEW013 BKN015 BKN250 14/11 Q1007 WHT WHT BECMG BLU
  • 270520Z 26007KT 8000 BKN013 SCT045 BKN100 14/12 Q1007 GRN GRN BECMG BLU
  • 270440Z 27006KT 8000 FEW010 BKN013 BKN045 13/12 Q1007 GRN GRN BECMG BLU
  • 270420Z 27006KT 5000 -RA BR FEW007 BKN010 BKN045 13/12 Q1007 GRN GRN BECMG BLU

TAF TAF ETND
Valide du 27 à 05h jusqu'au 27 à 17h UTC


270420Z 2705/2717 25008KT 9999 NSW BKN010 BKN050
BECMG 2705/2707 26012G22KT 9999 NSW FEW010 BKN060 BY ETGL
Pas de NOTAMs connus pour ce terrain.



MET'MAP, la Météo Aéronautique d'un coup d'oeil ! - Copyright ORBIFLY Décembre 2007 - Disclaimer

ORBIFLY MET'MAP TEAM :

Programmation & Développement : Alexandra Zaïnal
Conception & Développement : Baudouin d'Aumeries
Co-Programmation & Développement : Marc-Olivier Méhu
Soutien technique & logistique : Manuel Goepfert

Contact : metmap@orbifly.com




SOURCES & CREDITS :

   NOAA